YPKU

East Kimberley Regional Airport

Airport
ICAO code
YPKU
IATA Code
KNX
Summary
ICAO Region
APAC
ICAO Territory
Location

Kununurra, Western Australia

Serving
Kununurra
Elevation
145 ft
Coordinates
15° 46' 41" S , 128° 42' 34" E
Metar
YPKU 200530Z AUTO 09009KT 070V140 9999 // NCD 33/09 Q1012 RF00.0/000.0

Kununurra Airport is an airport in Kununurra, Western Australia. The airport is 2.5 km from the town centre.

Airport map

Aerial View

SKYbrary Partners:

Safety knowledge contributed by: